Time,TemperatureF,DewpointF,PressureIn,WindDirection,WindDirectionDegrees,WindSpeedMPH,WindSpeedGustMPH,Humidity,HourlyPrecipIn,Conditions,Clouds,dailyrainin,SoftwareType,DateUTC
2013-07-09 00:02:00,65.0,64.0,30.27,East,87,0.0,0.0,97,0.05,,,0.64,,2013-07-09 04:02:00,
2013-07-09 00:34:00,65.0,64.0,30.27,ENE,68,1.0,1.0,97,0.00,,,0.64,,2013-07-09 04:34:00,
2013-07-09 00:43:00,65.0,64.0,30.27,ENE,68,0.0,0.0,97,0.00,,,0.64,,2013-07-09 04:43:00,
2013-07-09 01:02:00,65.0,64.0,30.27,ESE,113,1.0,3.0,97,0.00,,,0.64,,2013-07-09 05:02:00,
2013-07-09 01:12:00,65.0,64.0,30.27,East,89,1.0,2.0,97,0.00,,,0.64,,2013-07-09 05:12:00,
2013-07-09 01:22:00,65.0,64.0,30.27,East,89,1.0,2.0,97,0.00,,,0.64,,2013-07-09 05:22:00,
2013-07-09 01:33:00,65.0,64.0,30.27,East,79,1.0,2.0,98,0.00,,,0.64,,2013-07-09 05:33:00,
2013-07-09 01:42:00,65.0,64.0,30.27,NNE,27,1.0,2.0,98,0.00,,,0.64,,2013-07-09 05:42:00,
2013-07-09 02:01:00,65.0,64.0,30.25,NE,40,2.0,3.0,98,0.00,,,0.64,,2013-07-09 06:01:00,
2013-07-09 02:11:00,64.0,63.0,30.25,NE,43,2.0,3.0,98,0.00,,,0.64,,2013-07-09 06:11:00,
2013-07-09 02:22:00,64.0,63.0,30.25,NE,43,2.0,3.0,98,0.00,,,0.64,,2013-07-09 06:22:00,
2013-07-09 02:33:00,64.0,63.0,30.26,NE,53,1.0,3.0,98,0.00,,,0.64,,2013-07-09 06:33:00,
2013-07-09 02:43:00,65.0,64.0,30.26,SSW,201,0.0,2.0,98,0.00,,,0.64,,2013-07-09 06:43:00,
2013-07-09 02:53:00,65.0,64.0,30.25,SW,214,0.0,2.0,98,0.00,,,0.64,,2013-07-09 06:53:00,
2013-07-09 03:02:00,65.0,64.0,30.25,SW,214,0.0,2.0,98,0.00,,,0.64,,2013-07-09 07:02:00,
2013-07-09 03:12:00,65.0,64.0,30.25,WSW,253,0.0,1.0,98,0.00,,,0.64,,2013-07-09 07:12:00,
2013-07-09 03:22:00,65.0,64.0,30.25,WSW,253,0.0,1.0,98,0.00,,,0.64,,2013-07-09 07:22:00,
2013-07-09 03:34:00,65.0,64.0,30.25,WSW,240,0.0,1.0,97,0.00,,,0.64,,2013-07-09 07:34:00,
2013-07-09 03:43:00,64.0,63.0,30.25,SW,228,1.0,4.0,98,0.00,,,0.64,,2013-07-09 07:43:00,
2013-07-09 03:53:00,64.0,63.0,30.25,SE,135,0.0,2.0,98,0.00,,,0.64,,2013-07-09 07:53:00,
2013-07-09 04:01:00,64.0,63.0,30.25,SE,135,0.0,2.0,98,0.00,,,0.64,,2013-07-09 08:01:00,
2013-07-09 04:11:00,64.0,63.0,30.24,NE,56,1.0,2.0,98,0.00,,,0.64,,2013-07-09 08:11:00,
2013-07-09 04:22:00,64.0,63.0,30.24,NE,56,1.0,2.0,98,0.00,,,0.64,,2013-07-09 08:22:00,
2013-07-09 04:33:00,64.0,63.0,30.24,ENE,68,1.0,2.0,97,0.00,,,0.64,,2013-07-09 08:33:00,
2013-07-09 04:43:00,64.0,63.0,30.24,East,89,0.0,1.0,97,0.00,,,0.64,,2013-07-09 08:43:00,
2013-07-09 04:52:00,64.0,63.0,30.24,NE,44,0.0,1.0,97,0.00,,,0.64,,2013-07-09 08:52:00,
2013-07-09 05:02:00,64.0,63.0,30.24,NE,44,0.0,1.0,97,0.00,,,0.64,,2013-07-09 09:02:00,
2013-07-09 05:12:00,64.0,63.0,30.24,NE,40,1.0,2.0,98,0.00,,,0.64,,2013-07-09 09:12:00,
2013-07-09 05:34:00,64.0,63.0,30.24,WNW,301,0.0,2.0,98,0.00,,,0.64,,2013-07-09 09:34:00,
2013-07-09 05:42:00,63.0,62.0,30.24,NW,312,1.0,4.0,98,0.00,,,0.64,,2013-07-09 09:42:00,
2013-07-09 05:53:00,63.0,62.0,30.24,NW,312,1.0,4.0,98,0.00,,,0.64,,2013-07-09 09:53:00,
2013-07-09 06:01:00,63.0,62.0,30.24,NNE,23,2.0,4.0,98,0.00,,,0.64,,2013-07-09 10:01:00,
2013-07-09 06:11:00,64.0,63.0,30.24,NNW,329,1.0,5.0,97,0.00,,,0.64,,2013-07-09 10:11:00,
2013-07-09 06:33:00,64.0,63.0,30.24,NNE,32,0.0,2.0,96,0.00,,,0.64,,2013-07-09 10:33:00,
2013-07-09 06:42:00,64.0,63.0,30.24,North,354,0.0,4.0,96,0.00,,,0.64,,2013-07-09 10:42:00,
2013-07-09 06:52:00,64.0,63.0,30.24,North,354,0.0,4.0,96,0.00,,,0.64,,2013-07-09 10:52:00,
2013-07-09 07:01:00,64.0,63.0,30.24,East,98,1.0,4.0,95,0.00,,,0.64,,2013-07-09 11:01:00,
2013-07-09 07:11:00,64.0,63.0,30.24,ENE,75,1.0,6.0,95,0.00,,,0.64,,2013-07-09 11:11:00,
2013-07-09 07:34:00,64.0,63.0,30.24,NE,34,2.0,5.0,95,0.00,,,0.64,,2013-07-09 11:34:00,
2013-07-09 07:42:00,65.0,63.0,30.24,ENE,65,3.0,4.0,94,0.00,,,0.64,,2013-07-09 11:42:00,
2013-07-09 07:53:00,65.0,64.0,30.24,NE,44,2.0,3.0,95,0.00,,,0.64,,2013-07-09 11:53:00,
2013-07-09 08:02:00,65.0,64.0,30.24,NE,44,2.0,3.0,95,0.00,,,0.64,,2013-07-09 12:02:00,
2013-07-09 08:11:00,65.0,63.0,30.25,ENE,67,2.0,3.0,94,0.00,,,0.64,,2013-07-09 12:11:00,
2013-07-09 08:33:00,66.0,64.0,30.25,NNE,30,1.0,3.0,93,0.00,,,0.64,,2013-07-09 12:33:00,
2013-07-09 08:43:00,66.0,64.0,30.25,West,262,0.0,1.0,94,0.00,,,0.64,,2013-07-09 12:43:00,
2013-07-09 08:52:00,66.0,64.0,30.25,West,262,0.0,1.0,94,0.00,,,0.64,,2013-07-09 12:52:00,
2013-07-09 09:11:00,66.0,64.0,30.26,WSW,240,0.0,1.0,94,0.00,,,0.64,,2013-07-09 13:11:00,
2013-07-09 09:33:00,65.0,64.0,30.26,SW,229,0.0,1.0,96,0.00,,,0.64,,2013-07-09 13:33:00,
2013-07-09 09:43:00,65.0,64.0,30.26,SW,236,0.0,1.0,97,0.00,,,0.64,,2013-07-09 13:43:00,
2013-07-09 09:53:00,65.0,64.0,30.26,SW,236,0.0,1.0,97,0.00,,,0.64,,2013-07-09 13:53:00,
2013-07-09 10:01:00,66.0,65.0,30.26,SW,236,0.0,1.0,96,0.00,,,0.64,,2013-07-09 14:01:00,
2013-07-09 10:11:00,67.0,65.0,30.26,WSW,243,0.0,1.0,93,0.00,,,0.64,,2013-07-09 14:11:00,
2013-07-09 10:34:00,68.0,66.0,30.26,SW,226,0.0,2.0,93,0.00,,,0.64,,2013-07-09 14:34:00,
2013-07-09 10:43:00,69.0,65.0,30.25,SW,234,0.0,0.0,88,0.00,,,0.64,,2013-07-09 14:43:00,
2013-07-09 10:53:00,69.0,65.0,30.25,SW,234,0.0,0.0,88,0.00,,,0.64,,2013-07-09 14:53:00,
2013-07-09 11:02:00,70.0,66.0,30.26,WSW,256,0.0,1.0,88,0.00,,,0.64,,2013-07-09 15:02:00,
2013-07-09 11:22:00,71.0,67.0,30.26,West,280,0.0,1.0,87,0.00,,,0.64,,2013-07-09 15:22:00,
2013-07-09 11:33:00,70.0,66.0,30.26,SW,235,0.0,0.0,86,0.00,,,0.64,,2013-07-09 15:33:00,
2013-07-09 12:02:00,72.0,68.0,30.26,SW,229,3.0,6.0,86,0.00,,,0.64,,2013-07-09 16:02:00,
2013-07-09 12:22:00,73.0,70.0,30.26,West,276,0.0,2.0,89,0.00,,,0.64,,2013-07-09 16:22:00,
2013-07-09 12:34:00,73.0,69.0,30.26,SW,236,0.0,3.0,88,0.00,,,0.64,,2013-07-09 16:34:00,
2013-07-09 12:43:00,74.0,69.0,30.25,NW,304,0.0,2.0,84,0.00,,,0.64,,2013-07-09 16:43:00,
2013-07-09 12:52:00,74.0,69.0,30.25,NW,304,0.0,2.0,84,0.00,,,0.64,,2013-07-09 16:52:00,
2013-07-09 13:02:00,76.0,70.0,30.25,NNW,332,0.0,2.0,81,0.00,,,0.64,,2013-07-09 17:02:00,
2013-07-09 13:22:00,77.0,70.0,30.25,NNW,329,0.0,3.0,78,0.00,,,0.64,,2013-07-09 17:22:00,
2013-07-09 14:02:00,75.0,69.0,30.24,WSW,248,0.0,0.0,81,0.00,,,0.64,,2013-07-09 18:02:00,
2013-07-09 14:11:00,73.0,69.0,30.24,SW,229,0.0,2.0,88,0.00,,,0.64,,2013-07-09 18:11:00,
2013-07-09 14:32:00,72.0,69.0,30.24,WSW,246,0.0,1.0,90,0.00,,,0.64,,2013-07-09 18:32:00,
2013-07-09 14:43:00,71.0,69.0,30.23,WSW,242,0.0,1.0,93,0.00,,,0.64,,2013-07-09 18:43:00,
2013-07-09 14:52:00,71.0,69.0,30.23,WSW,242,0.0,1.0,93,0.00,,,0.64,,2013-07-09 18:52:00,
2013-07-09 15:01:00,72.0,70.0,30.23,WSW,250,0.0,1.0,93,0.00,,,0.64,,2013-07-09 19:01:00,
2013-07-09 15:22:00,73.0,69.0,30.22,West,267,0.0,6.0,88,0.00,,,0.64,,2013-07-09 19:22:00,
2013-07-09 15:33:00,75.0,71.0,30.22,SW,236,1.0,6.0,88,0.00,,,0.64,,2013-07-09 19:33:00,
2013-07-09 15:42:00,75.0,67.0,30.22,WNW,293,0.0,3.0,76,0.00,,,0.64,,2013-07-09 19:42:00,
2013-07-09 15:52:00,75.0,67.0,30.22,WNW,293,0.0,3.0,76,0.00,,,0.64,,2013-07-09 19:52:00,
2013-07-09 16:02:00,74.0,67.0,30.21,NNW,340,0.0,1.0,79,0.00,,,0.64,,2013-07-09 20:02:00,
2013-07-09 16:22:00,74.0,68.0,30.20,West,267,0.0,0.0,82,0.00,,,0.64,,2013-07-09 20:22:00,
2013-07-09 16:32:00,74.0,67.0,30.20,WSW,240,2.0,5.0,79,0.00,,,0.64,,2013-07-09 20:32:00,
2013-07-09 16:43:00,74.0,69.0,30.19,SW,232,1.0,2.0,84,0.00,,,0.64,,2013-07-09 20:43:00,
2013-07-09 16:52:00,74.0,69.0,30.19,SW,232,1.0,2.0,84,0.00,,,0.64,,2013-07-09 20:52:00,
2013-07-09 17:01:00,73.0,69.0,30.19,WSW,248,1.0,2.0,87,0.00,,,0.64,,2013-07-09 21:01:00,
2013-07-09 17:11:00,72.0,69.0,30.19,WSW,242,1.0,3.0,90,0.00,,,0.49,,2013-07-09 21:11:00,
2013-07-09 17:32:00,73.0,69.0,30.19,West,262,0.0,2.0,87,0.00,,,0.49,,2013-07-09 21:32:00,
2013-07-09 17:42:00,76.0,70.0,30.18,WNW,282,2.0,4.0,82,0.00,,,0.49,,2013-07-09 21:42:00,
2013-07-09 17:52:00,76.0,70.0,30.18,WNW,282,2.0,4.0,82,0.00,,,0.49,,2013-07-09 21:52:00,
2013-07-09 18:01:00,78.0,72.0,30.17,SW,223,2.0,4.0,81,0.00,,,0.49,,2013-07-09 22:01:00,
2013-07-09 18:11:00,75.0,69.0,30.17,WNW,302,3.0,6.0,83,0.00,,,0.49,,2013-07-09 22:11:00,
2013-07-09 18:33:00,73.0,69.0,30.17,WSW,242,2.0,5.0,88,0.00,,,0.49,,2013-07-09 22:33:00,
2013-07-09 18:42:00,73.0,71.0,30.18,WNW,285,0.0,1.0,92,0.09,,,0.57,,2013-07-09 22:42:00,
2013-07-09 18:53:00,73.0,71.0,30.18,WNW,285,0.0,1.0,92,0.09,,,0.57,,2013-07-09 22:53:00,
2013-07-09 19:02:00,72.0,70.0,30.18,WSW,242,1.0,3.0,92,0.10,,,0.59,,2013-07-09 23:02:00,
2013-07-09 19:12:00,70.0,68.0,30.18,WSW,252,1.0,3.0,94,0.31,,,0.80,,2013-07-09 23:12:00,
2013-07-09 19:22:00,70.0,68.0,30.18,WSW,252,1.0,3.0,94,0.31,,,0.80,,2013-07-09 23:22:00,
2013-07-09 19:33:00,69.0,67.0,30.18,SE,134,2.0,3.0,94,0.62,,,1.11,,2013-07-09 23:33:00,
2013-07-09 19:43:00,68.0,67.0,30.18,WSW,245,0.0,2.0,95,0.55,,,1.13,,2013-07-09 23:43:00,
2013-07-09 19:53:00,68.0,67.0,30.18,WSW,253,3.0,4.0,95,0.55,,,1.13,,2013-07-09 23:53:00,
2013-07-09 20:01:00,68.0,67.0,30.18,WSW,253,3.0,4.0,95,0.55,,,1.13,,2013-07-10 00:01:00,
2013-07-09 20:11:00,68.0,67.0,30.18,NW,315,0.0,1.0,95,0.33,,,1.13,,2013-07-10 00:11:00,
2013-07-09 20:22:00,68.0,67.0,30.18,NW,315,0.0,1.0,95,0.33,,,1.13,,2013-07-10 00:22:00,
2013-07-09 20:33:00,67.0,65.0,30.19,WSW,243,1.0,3.0,93,0.02,,,1.13,,2013-07-10 00:33:00,
2013-07-09 20:42:00,67.0,65.0,30.19,SSE,154,0.0,1.0,94,0.00,,,1.13,,2013-07-10 00:42:00,
2013-07-09 20:52:00,67.0,65.0,30.19,SW,235,0.0,1.0,93,0.00,,,1.13,,2013-07-10 00:52:00,
2013-07-09 21:01:00,67.0,65.0,30.19,SW,235,0.0,1.0,93,0.00,,,1.13,,2013-07-10 01:01:00,
2013-07-09 21:11:00,67.0,65.0,30.19,SW,235,0.0,1.0,93,0.00,,,1.13,,2013-07-10 01:11:00,
2013-07-09 21:22:00,67.0,65.0,30.19,SW,235,0.0,1.0,93,0.00,,,1.13,,2013-07-10 01:22:00,
2013-07-09 21:33:00,67.0,65.0,30.19,ESE,108,0.0,0.0,93,0.00,,,1.13,,2013-07-10 01:33:00,
2013-07-09 21:43:00,67.0,65.0,30.21,East,99,0.0,1.0,94,0.00,,,1.13,,2013-07-10 01:43:00,
2013-07-09 21:53:00,67.0,65.0,30.21,East,99,0.0,1.0,94,0.00,,,1.13,,2013-07-10 01:53:00,
2013-07-09 22:02:00,66.0,64.0,30.20,East,99,0.0,1.0,94,0.00,,,1.13,,2013-07-10 02:02:00,
2013-07-09 22:11:00,66.0,64.0,30.20,ENE,65,1.0,2.0,94,0.00,,,0.89,,2013-07-10 02:11:00,
2013-07-09 22:34:00,67.0,65.0,30.20,WSW,250,0.0,3.0,93,0.00,,,0.89,,2013-07-10 02:34:00,
2013-07-09 23:01:00,66.0,65.0,30.21,ENE,72,1.0,1.0,95,0.00,,,0.89,,2013-07-10 03:01:00,
2013-07-09 23:12:00,67.0,65.0,30.21,ENE,71,0.0,0.0,94,0.00,,,0.66,,2013-07-10 03:12:00,
2013-07-09 23:32:00,67.0,65.0,30.20,East,95,0.0,2.0,94,0.00,,,0.66,,2013-07-10 03:32:00,
2013-07-09 23:43:00,67.0,66.0,30.20,NNE,32,1.0,2.0,95,0.00,,,0.66,,2013-07-10 03:43:00,
2013-07-09 23:52:00,67.0,66.0,30.20,NNE,32,1.0,2.0,95,0.00,,,0.66,,2013-07-10 03:52:00,